Time;durP1;ratioP1;P1;durP2;ratioP2;P2;SDS_P1;SDS_P2;PMS_P1;PMS_P2;Temp;Humidity;BMP_temperature;BMP_pressure;BME280_temperature;BME280_humidity;BME280_pressure;Samples;Min_cycle;Max_cycle;Signal;HPM_P1;HPM_P2
2023/01/06 00:01:26;;;;;;;7.30;3.88;;;;;;;14.75;100.00;97003.50;5057266;28;20525;-40
2023/01/06 00:03:58;;;;;;;7.10;3.65;;;;;;;14.70;100.00;96996.84;5052138;28;20175;-47
2023/01/06 00:06:29;;;;;;;4.35;3.35;;;;;;;14.82;100.00;96999.22;5052436;28;20083;-41
2023/01/06 00:09:01;;;;;;;7.53;3.50;;;;;;;14.24;100.00;97003.28;5053309;28;20071;-40
2023/01/06 00:11:30;;;;;;;5.63;3.95;;;;;;;14.60;100.00;96988.16;5054370;28;20593;-46
2023/01/06 00:13:59;;;;;;;6.28;4.05;;;;;;;14.41;100.00;96997.09;5051823;28;20103;-43
2023/01/06 00:16:27;;;;;;;7.97;3.85;;;;;;;14.72;100.00;96991.34;5051778;28;20117;-46
2023/01/06 00:18:57;;;;;;;5.78;3.90;;;;;;;14.83;100.00;96982.28;5050415;28;20080;-41
2023/01/06 00:21:28;;;;;;;8.38;3.92;;;;;;;14.51;100.00;96977.63;5049857;28;20099;-45
2023/01/06 00:23:56;;;;;;;4.63;3.60;;;;;;;14.67;100.00;96972.44;5051946;28;20080;-42
2023/01/06 00:26:25;;;;;;;5.88;3.75;;;;;;;14.71;100.00;96971.13;5053675;28;20088;-44
2023/01/06 00:28:53;;;;;;;5.50;3.78;;;;;;;14.82;100.00;96972.66;5053199;28;20084;-43
2023/01/06 00:31:22;;;;;;;7.80;3.95;;;;;;;14.81;100.00;96969.19;5051578;28;20072;-46
2023/01/06 00:33:50;;;;;;;7.68;3.70;;;;;;;14.70;100.00;96975.59;5050980;28;20080;-43
2023/01/06 00:36:20;;;;;;;4.57;3.40;;;;;;;14.74;100.00;96976.13;5052741;28;20483;-41
2023/01/06 00:38:51;;;;;;;6.65;3.80;;;;;;;14.67;100.00;96973.25;5048828;28;20084;-41
2023/01/06 00:44:05;;;;;;;7.50;3.63;;;;;;;14.63;100.00;96973.75;5054171;28;20441;-42
2023/01/06 00:46:34;;;;;;;6.25;3.53;;;;;;;14.68;100.00;96968.78;5052608;28;20087;-41
2023/01/06 00:49:03;;;;;;;7.68;4.40;;;;;;;14.72;100.00;96973.59;5050017;28;20095;-40
2023/01/06 00:51:35;;;;;;;9.15;4.97;;;;;;;14.77;100.00;96967.00;5050639;28;20084;-45
2023/01/06 00:54:05;;;;;;;11.18;6.63;;;;;;;14.77;100.00;96962.53;5053081;28;20084;-44
2023/01/06 00:56:35;;;;;;;10.25;6.03;;;;;;;14.72;100.00;96962.16;5050541;28;20052;-45
2023/01/06 00:59:04;;;;;;;8.68;5.25;;;;;;;14.77;100.00;96959.03;5052433;28;20080;-42
2023/01/06 01:01:33;;;;;;;10.07;5.45;;;;;;;14.63;100.00;96956.00;5051036;28;20174;-42
2023/01/06 01:04:02;;;;;;;10.95;5.95;;;;;;;14.91;100.00;96953.13;5053593;28;20083;-40
2023/01/06 01:06:30;;;;;;;9.70;5.57;;;;;;;15.00;100.00;96943.34;5055667;28;20077;-43
2023/01/06 01:09:00;;;;;;;10.77;6.32;;;;;;;15.05;100.00;96957.84;5053261;28;20091;-43
2023/01/06 01:14:17;;;;;;;5.80;3.83;;;;;;;15.22;100.00;96944.63;5052767;28;20084;-41
2023/01/06 01:16:45;;;;;;;4.97;3.13;;;;;;;15.20;100.00;96944.75;5054209;28;20076;-42
2023/01/06 01:19:13;;;;;;;4.72;2.85;;;;;;;15.27;100.00;96945.78;5052942;28;20092;-44
2023/01/06 01:21:42;;;;;;;4.20;2.88;;;;;;;15.30;100.00;96936.66;5054844;28;20072;-42
2023/01/06 01:24:10;;;;;;;4.18;2.72;;;;;;;15.37;100.00;96943.81;5061406;28;20114;-48
2023/01/06 01:26:40;;;;;;;5.22;2.60;;;;;;;15.35;100.00;96943.16;5062648;28;20088;-41
2023/01/06 01:29:11;;;;;;;6.50;2.85;;;;;;;15.34;100.00;96941.47;5056742;28;20091;-40
2023/01/06 01:31:39;;;;;;;4.15;2.78;;;;;;;15.34;100.00;96943.31;5057280;28;20088;-44
2023/01/06 01:34:08;;;;;;;4.30;2.70;;;;;;;15.36;100.00;96938.66;5058405;28;20091;-40
2023/01/06 01:36:36;;;;;;;4.40;2.60;;;;;;;15.33;100.00;96936.34;5060380;28;20080;-41
2023/01/06 01:39:05;;;;;;;3.50;2.60;;;;;;;15.29;100.00;96941.13;5054813;28;20103;-41
2023/01/06 01:41:33;;;;;;;4.97;2.67;;;;;;;15.17;100.00;96948.59;5055583;28;20084;-46
2023/01/06 01:44:19;;;;;;;4.72;2.85;;;;;;;15.22;100.00;96949.94;5056817;28;20504;-45
2023/01/06 01:46:47;;;;;;;3.75;2.50;;;;;;;15.05;100.00;96946.38;5061294;28;20405;-46
2023/01/06 01:49:18;;;;;;;3.42;2.50;;;;;;;14.72;100.00;96941.75;5054927;28;20084;-44
2023/01/06 01:51:46;;;;;;;;;;;;;;;14.85;100.00;96937.84;5056952;28;20069;-40
2023/01/06 01:54:19;;;;;;;4.10;2.55;;;;;;;14.83;100.00;96938.00;5056005;28;19967;-46
2023/01/06 01:56:52;;;;;;;4.18;2.72;;;;;;;14.79;100.00;96943.78;5053010;28;20643;-40
2023/01/06 01:59:23;;;;;;;5.05;2.50;;;;;;;14.69;100.00;96933.25;5058633;28;20083;-47
2023/01/06 02:01:52;;;;;;;2.72;2.22;;;;;;;14.57;100.00;96939.84;5058450;28;20091;-40
2023/01/06 02:04:22;;;;;;;3.60;2.50;;;;;;;14.55;100.00;96942.66;5061433;28;20083;-45
2023/01/06 02:06:50;;;;;;;3.37;2.50;;;;;;;14.52;100.00;96936.81;5058014;28;20076;-43
2023/01/06 02:09:21;;;;;;;3.78;2.30;;;;;;;14.52;100.00;96934.16;5056093;28;20159;-46
2023/01/06 02:11:51;;;;;;;3.42;2.60;;;;;;;14.46;100.00;96928.50;5056959;28;20079;-41
2023/01/06 02:14:27;;;;;;;3.65;2.50;;;;;;;14.40;100.00;96933.59;5049895;28;20095;-45
2023/01/06 02:17:09;;;;;;;3.47;2.58;;;;;;;14.48;100.00;96933.63;5055177;28;20072;-42
2023/01/06 02:20:03;;;;;;;5.97;2.47;;;;;;;14.49;100.00;96927.34;5051211;28;20476;-40
2023/01/06 02:22:51;;;;;;;4.00;2.60;;;;;;;14.44;100.00;96922.50;5057878;28;20099;-43
2023/01/06 02:25:38;;;;;;;2.95;2.35;;;;;;;14.34;100.00;96924.41;5058332;28;20091;-41
2023/01/06 02:28:25;;;;;;;3.35;2.30;;;;;;;14.25;100.00;96920.91;5055078;28;20475;-47
2023/01/06 02:31:27;;;;;;;5.32;2.90;;;;;;;14.17;100.00;96920.84;5057648;28;20179;-44
2023/01/06 02:34:01;;;;;;;5.25;2.80;;;;;;;13.69;100.00;96918.63;5053924;28;20079;-45
2023/01/06 02:36:36;;;;;;;10.93;3.78;;;;;;;13.60;100.00;96908.97;5056699;28;20079;-45
2023/01/06 02:39:15;;;;;;;11.73;3.50;;;;;;;13.11;100.00;96917.25;5056138;28;20091;-43
2023/01/06 02:41:46;;;;;;;8.80;4.53;;;;;;;13.29;100.00;96917.28;5053040;28;20085;-43
2023/01/06 02:44:19;;;;;;;7.45;4.68;;;;;;;11.81;100.00;96917.13;5055403;28;20088;-42
2023/01/06 02:46:58;;;;;;;5.72;3.75;;;;;;;12.14;100.00;96911.53;5050777;28;20671;-41
2023/01/06 02:49:31;;;;;;;4.80;3.40;;;;;;;12.10;100.00;96911.00;5054088;28;20076;-45
2023/01/06 02:52:02;;;;;;;8.40;4.18;;;;;;;12.77;100.00;96901.16;5053981;28;20087;-43
2023/01/06 02:54:38;;;;;;;7.22;4.45;;;;;;;12.23;100.00;96900.09;5056560;28;20476;-45
2023/01/06 02:57:13;;;;;;;11.40;4.07;;;;;;;12.52;100.00;96897.34;5057046;28;20084;-41
2023/01/06 02:59:47;;;;;;;12.10;4.53;;;;;;;12.52;100.00;96889.41;5053759;28;20092;-44
2023/01/06 03:02:16;;;;;;;7.50;3.97;;;;;;;12.89;100.00;96884.06;5057230;28;20094;-47
2023/01/06 03:04:47;;;;;;;10.20;4.50;;;;;;;12.76;100.00;96892.34;5051539;28;20571;-46
2023/01/06 03:07:17;;;;;;;7.93;4.40;;;;;;;12.95;100.00;96887.94;5057093;28;20086;-43
2023/01/06 03:09:46;;;;;;;8.80;4.27;;;;;;;13.12;100.00;96892.44;5058767;28;20076;-44
2023/01/06 03:12:18;;;;;;;8.95;4.30;;;;;;;13.22;100.00;96890.53;5058563;28;20087;-45
2023/01/06 03:14:49;;;;;;;5.95;3.70;;;;;;;13.22;100.00;96884.41;5051523;28;20072;-41
2023/01/06 03:17:18;;;;;;;5.63;3.45;;;;;;;13.20;100.00;96879.25;5056873;28;20493;-42
2023/01/06 03:19:47;;;;;;;5.78;3.25;;;;;;;13.15;100.00;96880.72;5053631;28;20072;-41
2023/01/06 03:22:16;;;;;;;5.97;3.40;;;;;;;13.02;100.00;96886.38;5051483;28;20088;-42
2023/01/06 03:24:45;;;;;;;5.72;2.45;;;;;;;12.96;100.00;96884.31;5055638;28;20528;-43
2023/01/06 03:27:14;;;;;;;3.13;2.15;;;;;;;12.85;100.00;96887.16;5056461;28;20092;-42
2023/01/06 03:29:43;;;;;;;4.47;2.72;;;;;;;12.59;100.00;96886.06;5056962;28;20083;-41
2023/01/06 03:32:17;;;;;;;7.18;2.42;;;;;;;12.73;100.00;96875.94;5051250;28;20084;-47
2023/01/06 03:35:02;;;;;;;4.22;2.70;;;;;;;12.68;100.00;96878.19;5056769;28;20076;-42
2023/01/06 03:37:36;;;;;;;3.95;2.83;;;;;;;12.68;100.00;96876.38;5053077;28;20104;-46
2023/01/06 03:40:09;;;;;;;3.33;2.28;;;;;;;12.48;100.00;96882.75;5052359;28;20087;-47
2023/01/06 03:45:52;;;;;;;5.72;2.13;;;;;;;12.39;100.00;96867.75;5052562;28;20085;-42
2023/01/06 03:48:30;;;;;;;12.80;2.20;;;;;;;12.49;100.00;96873.81;5055925;28;20190;-47
2023/01/06 03:51:03;;;;;;;8.77;2.20;;;;;;;12.44;100.00;96874.28;5054976;28;20084;-41
2023/01/06 03:53:37;;;;;;;4.25;2.33;;;;;;;12.28;100.00;96876.69;5050698;28;20100;-45
2023/01/06 03:56:12;;;;;;;3.70;1.90;;;;;;;11.90;100.00;96886.41;5050085;28;20095;-46
2023/01/06 03:58:41;;;;;;;7.78;2.13;;;;;;;12.20;100.00;96880.06;5054151;28;20072;-44
2023/01/06 04:01:10;;;;;;;15.80;1.55;;;;;;;11.89;100.00;96890.03;5051145;28;20084;-41
2023/01/06 04:03:39;;;;;;;12.65;1.67;;;;;;;11.64;100.00;96888.78;5054839;28;20088;-44
2023/01/06 04:06:08;;;;;;;9.93;1.60;;;;;;;12.00;100.00;96883.75;5055886;28;20087;-41
2023/01/06 04:08:37;;;;;;;20.13;1.50;;;;;;;11.96;100.00;96883.19;5052141;28;20080;-45
2023/01/06 04:11:05;;;;;;;20.50;2.03;;;;;;;12.02;100.00;96887.09;5049502;28;20092;-41
2023/01/06 04:13:32;;;;;;;18.38;1.77;;;;;;;12.08;100.00;96879.41;5050221;28;20091;-47
2023/01/06 04:16:00;;;;;;;6.10;1.63;;;;;;;11.89;100.00;96879.47;5049880;28;20090;-45
2023/01/06 04:18:29;;;;;;;19.13;1.92;;;;;;;12.00;100.00;96886.38;5051053;28;20076;-42
2023/01/06 04:20:57;;;;;;;2.00;1.60;;;;;;;12.01;100.00;96888.91;5050682;28;20466;-44
2023/01/06 04:23:31;;;;;;;10.02;1.67;;;;;;;11.73;100.00;96892.38;5049697;28;20144;-48
2023/01/06 04:26:00;;;;;;;11.27;1.77;;;;;;;11.85;100.00;96900.06;5050962;28;20084;-46
2023/01/06 04:28:28;;;;;;;13.98;1.77;;;;;;;11.88;100.00;96897.13;5054251;28;20085;-40
2023/01/06 04:30:57;;;;;;;12.98;2.13;;;;;;;11.93;100.00;96896.69;5050420;28;20464;-40
2023/01/06 04:33:26;;;;;;;16.50;2.08;;;;;;;11.92;100.00;96900.31;5052604;28;20099;-41
2023/01/06 04:35:54;;;;;;;18.90;2.00;;;;;;;11.84;100.00;96895.75;5054596;28;20103;-41
2023/01/06 04:38:22;;;;;;;21.67;2.10;;;;;;;11.81;100.00;96888.06;5052621;28;20087;-45
2023/01/06 04:40:52;;;;;;;17.30;2.00;;;;;;;11.83;100.00;96893.19;5059917;28;20080;-41
2023/01/06 04:43:20;;;;;;;11.00;1.90;;;;;;;11.83;100.00;96890.56;5048137;28;20081;-47
2023/01/06 04:45:49;;;;;;;4.78;1.98;;;;;;;11.85;100.00;96883.38;5056780;28;20084;-43
2023/01/06 04:48:17;;;;;;;29.42;2.60;;;;;;;11.81;100.00;96888.06;5054621;28;20536;-43
2023/01/06 04:50:46;;;;;;;26.60;2.25;;;;;;;11.83;100.00;96888.75;5053648;28;20505;-43
2023/01/06 04:53:15;;;;;;;25.92;2.25;;;;;;;11.85;100.00;96884.19;5054932;28;20084;-43
2023/01/06 04:55:43;;;;;;;14.20;1.73;;;;;;;11.84;100.00;96884.34;5055115;28;20076;-47
2023/01/06 04:58:12;;;;;;;12.82;1.90;;;;;;;11.62;100.00;96885.44;5051298;28;20095;-45
2023/01/06 05:00:41;;;;;;;10.30;1.83;;;;;;;11.62;100.00;96886.28;5051641;28;20533;-42
2023/01/06 05:03:09;;;;;;;11.02;1.60;;;;;;;11.56;100.00;96886.00;5054071;28;20084;-42
2023/01/06 05:05:38;;;;;;;4.28;1.80;;;;;;;11.55;100.00;96884.34;5054535;28;20076;-45
2023/01/06 05:08:06;;;;;;;2.97;1.92;;;;;;;11.47;100.00;96884.22;5051217;28;20076;-45
2023/01/06 05:10:35;;;;;;;2.42;1.60;;;;;;;11.45;100.00;96872.94;5058035;28;20092;-44
2023/01/06 05:13:03;;;;;;;2.20;1.40;;;;;;;11.36;100.00;96879.91;5053410;28;20071;-41
2023/01/06 05:15:33;;;;;;;1.92;1.60;;;;;;;11.48;100.00;96870.03;5055906;28;20084;-46
2023/01/06 05:18:01;;;;;;;2.50;1.70;;;;;;;11.51;100.00;96877.66;5057326;28;20079;-46
2023/01/06 05:20:29;;;;;;;2.83;1.90;;;;;;;11.51;100.00;96878.50;5054002;28;20084;-44
2023/01/06 05:22:58;;;;;;;4.35;2.15;;;;;;;11.35;100.00;96878.22;5053082;28;20080;-40
2023/01/06 05:25:26;;;;;;;3.72;2.22;;;;;;;11.53;100.00;96881.84;5056128;28;20115;-46
2023/01/06 05:27:54;;;;;;;2.42;1.83;;;;;;;11.69;100.00;96886.53;5057012;28;20076;-50
2023/01/06 05:30:22;;;;;;;3.28;2.08;;;;;;;11.71;100.00;96870.56;5054543;28;20076;-41
2023/01/06 05:32:52;;;;;;;4.97;2.10;;;;;;;11.46;100.00;96878.09;5055028;28;20084;-42
2023/01/06 05:35:20;;;;;;;2.83;1.63;;;;;;;11.69;100.00;96877.78;5049048;28;20089;-44
2023/01/06 05:37:49;;;;;;;3.05;1.70;;;;;;;11.52;100.00;96877.53;5052852;28;20080;-40
2023/01/06 05:40:17;;;;;;;2.63;1.85;;;;;;;11.24;100.00;96873.91;5054036;28;20076;-43
2023/01/06 05:42:45;;;;;;;3.05;1.70;;;;;;;11.32;100.00;96870.56;5051218;28;20096;-42
2023/01/06 05:45:14;;;;;;;2.20;1.70;;;;;;;11.39;100.00;96875.19;5052148;28;20079;-46
2023/01/06 05:47:42;;;;;;;2.25;1.45;;;;;;;11.32;100.00;96873.22;5052830;28;20480;-45
2023/01/06 05:50:12;;;;;;;1.75;1.55;;;;;;;11.55;100.00;96874.59;5050024;28;20576;-43
2023/01/06 05:52:40;;;;;;;2.20;1.67;;;;;;;11.59;100.00;96870.69;5053516;28;20531;-45
2023/01/06 05:55:09;;;;;;;1.92;1.38;;;;;;;11.38;100.00;96865.56;5057037;28;20087;-48
2023/01/06 05:57:37;;;;;;;2.08;1.40;;;;;;;11.33;100.00;96875.72;5056104;28;20076;-43
2023/01/06 06:00:08;;;;;;;2.90;1.67;;;;;;;11.47;100.00;96877.13;5052541;28;20107;-43
2023/01/06 06:02:36;;;;;;;3.17;1.70;;;;;;;11.48;100.00;96876.13;5050655;28;20096;-49
2023/01/06 06:05:05;;;;;;;2.88;1.67;;;;;;;11.48;100.00;96870.84;5054360;28;20100;-41
2023/01/06 06:07:35;;;;;;;1.77;1.30;;;;;;;11.40;100.00;96879.47;5055509;28;20092;-42
2023/01/06 06:10:04;;;;;;;2.30;1.40;;;;;;;10.98;100.00;96884.19;5058335;28;20084;-46
2023/01/06 06:12:32;;;;;;;2.95;2.08;;;;;;;11.19;100.00;96889.34;5056289;28;21057;-48
2023/01/06 06:15:00;;;;;;;3.80;3.10;;;;;;;11.09;100.00;96896.44;5054209;28;20072;-40
2023/01/06 06:17:30;;;;;;;3.40;2.72;;;;;;;11.28;100.00;96896.44;5051041;28;20076;-48
2023/01/06 06:19:58;;;;;;;4.27;3.10;;;;;;;11.33;100.00;96896.03;5052430;28;20088;-43
2023/01/06 06:22:26;;;;;;;3.92;2.95;;;;;;;11.36;100.00;96890.47;5050341;28;20484;-41
2023/01/06 06:24:56;;;;;;;5.63;4.03;;;;;;;11.27;100.00;96891.28;5056828;28;20087;-41
2023/01/06 06:27:24;;;;;;;4.33;3.10;;;;;;;11.35;100.00;96884.34;5054037;28;20088;-47
2023/01/06 06:29:53;;;;;;;3.65;1.92;;;;;;;11.41;100.00;96888.22;5055709;28;20540;-44
2023/01/06 06:32:21;;;;;;;1.98;1.65;;;;;;;11.43;100.00;96890.75;5052752;28;20080;-40
2023/01/06 06:34:50;;;;;;;1.98;1.58;;;;;;;11.43;100.00;96886.31;5057243;28;20112;-41
2023/01/06 06:37:18;;;;;;;4.05;1.60;;;;;;;11.42;100.00;96881.97;5057194;28;20087;-46
2023/01/06 06:39:46;;;;;;;2.33;1.58;;;;;;;11.40;100.00;96876.84;5056045;28;20089;-43
2023/01/06 06:42:16;;;;;;;8.82;5.38;;;;;;;11.03;100.00;96886.41;5060387;28;20436;-45
2023/01/06 06:44:44;;;;;;;15.25;8.10;;;;;;;11.24;100.00;96873.09;5058327;28;20076;-47
2023/01/06 06:47:14;;;;;;;24.25;12.82;;;;;;;11.33;100.00;96875.72;5053800;28;20084;-46
2023/01/06 06:49:43;;;;;;;8.60;6.07;;;;;;;11.38;100.00;96875.31;5057064;28;20081;-47
2023/01/06 06:52:11;;;;;;;7.72;6.53;;;;;;;11.05;100.00;96874.75;5053926;28;20066;-48
2023/01/06 06:54:39;;;;;;;7.30;5.28;;;;;;;11.12;100.00;96872.41;5050693;28;20068;-43
2023/01/06 06:57:08;;;;;;;4.78;3.80;;;;;;;11.28;100.00;96854.19;5060433;28;20077;-43
2023/01/06 06:59:37;;;;;;;29.23;20.13;;;;;;;11.34;100.00;96844.88;5062787;28;20077;-42
2023/01/06 07:02:06;;;;;;;3.27;2.40;;;;;;;10.83;100.00;96861.78;5057884;28;20075;-43
2023/01/06 07:04:34;;;;;;;2.80;2.15;;;;;;;10.89;100.00;96869.16;5053302;28;20064;-42
2023/01/06 07:07:03;;;;;;;4.47;3.33;;;;;;;10.81;100.00;96858.47;5061216;28;20071;-42
2023/01/06 07:09:31;;;;;;;4.53;3.40;;;;;;;10.96;100.00;96858.91;5061552;28;20059;-43
2023/01/06 07:12:00;;;;;;;4.07;2.80;;;;;;;10.58;100.00;96869.22;5053801;28;20075;-43
2023/01/06 07:14:28;;;;;;;3.95;2.70;;;;;;;11.08;100.00;96871.84;5051592;28;20473;-43
2023/01/06 07:17:00;;;;;;;2.03;1.52;;;;;;;10.89;100.00;96877.91;5054490;28;20527;-43
2023/01/06 07:19:28;;;;;;;2.38;1.92;;;;;;;11.20;100.00;96869.06;5053344;28;20084;-48
2023/01/06 07:21:56;;;;;;;2.10;1.40;;;;;;;11.23;100.00;96866.16;5060414;28;20091;-43
2023/01/06 07:24:25;;;;;;;2.60;1.55;;;;;;;11.21;100.00;96863.63;5061077;28;20096;-47
2023/01/06 07:26:53;;;;;;;1.50;1.23;;;;;;;11.23;100.00;96864.34;5058135;28;20077;-42
2023/01/06 07:29:21;;;;;;;1.45;1.33;;;;;;;11.36;100.00;96864.91;5060616;28;20085;-44
2023/01/06 07:31:50;;;;;;;3.35;2.20;;;;;;;11.38;100.00;96862.94;5058890;28;20080;-42
2023/01/06 07:34:19;;;;;;;6.40;2.90;;;;;;;11.27;100.00;96862.25;5053112;28;20072;-46
2023/01/06 07:36:48;;;;;;;2.65;2.05;;;;;;;11.29;100.00;96860.31;5057323;28;20174;-41
2023/01/06 07:39:16;;;;;;;3.05;1.67;;;;;;;11.25;100.00;96866.81;5058806;28;20484;-42
2023/01/06 07:41:44;;;;;;;4.00;2.95;;;;;;;11.13;100.00;96864.31;5059883;28;20092;-44
2023/01/06 07:44:13;;;;;;;2.60;1.80;;;;;;;10.70;100.00;96875.22;5056370;28;20045;-43
2023/01/06 07:46:43;;;;;;;;;;;;;;;11.28;100.00;96863.91;5055694;28;20547;-47
2023/01/06 07:49:11;;;;;;;3.55;2.13;;;;;;;11.38;100.00;96864.75;5054129;28;19951;-45
2023/01/06 07:51:41;;;;;;;3.47;2.40;;;;;;;11.44;100.00;96863.38;5057373;28;20481;-44
2023/01/06 07:54:10;;;;;;;1.97;1.50;;;;;;;11.33;100.00;96857.25;5058898;28;20582;-45
2023/01/06 07:56:38;;;;;;;4.05;2.70;;;;;;;11.25;100.00;96865.03;5058965;28;20465;-43
2023/01/06 07:59:06;;;;;;;2.55;2.05;;;;;;;10.80;100.00;96873.44;5062637;28;20527;-42
2023/01/06 08:01:35;;;;;;;1.67;1.17;;;;;;;11.37;100.00;96869.19;5058865;28;20087;-41
2023/01/06 08:04:03;;;;;;;1.73;1.20;;;;;;;11.52;100.00;96874.06;5062374;28;20083;-44
2023/01/06 08:06:32;;;;;;;1.50;1.10;;;;;;;11.39;100.00;96874.34;5057831;28;20210;-43
2023/01/06 08:09:01;;;;;;;2.05;1.35;;;;;;;11.37;100.00;96874.47;5058198;28;20095;-47
2023/01/06 08:11:30;;;;;;;2.17;1.13;;;;;;;11.43;100.00;96869.63;5052942;28;20072;-41
2023/01/06 08:13:58;;;;;;;3.45;1.10;;;;;;;11.42;100.00;96876.69;5050631;28;20616;-44
2023/01/06 08:16:26;;;;;;;3.13;1.00;;;;;;;11.00;100.00;96876.13;5056231;28;20084;-45
2023/01/06 08:18:55;;;;;;;1.65;1.20;;;;;;;11.40;100.00;96868.09;5061968;28;20135;-48
2023/01/06 08:21:23;;;;;;;2.50;2.00;;;;;;;11.48;100.00;96870.03;5054901;28;20486;-45
2023/01/06 08:23:51;;;;;;;2.53;1.20;;;;;;;11.62;100.00;96865.13;5060922;28;20099;-42
2023/01/06 08:26:21;;;;;;;2.05;1.38;;;;;;;11.52;100.00;96861.66;5058462;28;20083;-41
2023/01/06 08:28:50;;;;;;;1.47;1.10;;;;;;;11.70;100.00;96858.31;5059516;28;20461;-42
2023/01/06 08:31:20;;;;;;;1.58;1.17;;;;;;;11.71;100.00;96858.19;5053024;28;20088;-42
2023/01/06 08:33:49;;;;;;;1.20;1.10;;;;;;;11.80;100.00;96851.19;5058598;28;20081;-41
2023/01/06 08:36:19;;;;;;;3.17;1.50;;;;;;;11.83;100.00;96856.22;5054726;28;20578;-45
2023/01/06 08:38:48;;;;;;;2.97;1.70;;;;;;;11.97;100.00;96858.41;5054956;28;20091;-44
2023/01/06 08:41:17;;;;;;;1.67;1.40;;;;;;;12.06;100.00;96864.66;5055542;28;20561;-43
2023/01/06 08:43:47;;;;;;;1.90;1.40;;;;;;;12.04;100.00;96861.31;5050239;28;20083;-41
2023/01/06 08:46:17;;;;;;;3.50;1.60;;;;;;;11.92;100.00;96851.91;5057338;28;20083;-42
2023/01/06 08:48:46;;;;;;;1.65;1.25;;;;;;;11.97;100.00;96853.13;5057088;28;20064;-44
2023/01/06 08:51:17;;;;;;;1.45;1.00;;;;;;;12.43;100.00;96843.53;5059622;28;20143;-45
2023/01/06 08:53:46;;;;;;;1.83;1.23;;;;;;;12.45;100.00;96859.22;5053049;28;20118;-41
2023/01/06 08:56:16;;;;;;;2.10;1.40;;;;;;;12.59;100.00;96859.59;5053478;28;20540;-44
2023/01/06 08:58:44;;;;;;;2.90;1.65;;;;;;;12.59;100.00;96856.94;5056396;28;20119;-42
2023/01/06 09:01:17;;;;;;;2.60;1.70;;;;;;;12.47;100.00;96850.19;5054745;28;20085;-47
2023/01/06 09:03:46;;;;;;;2.13;1.45;;;;;;;12.41;100.00;96855.22;5058212;28;20081;-41
2023/01/06 09:06:15;;;;;;;2.38;1.42;;;;;;;12.99;100.00;96863.66;5058539;28;20092;-46
2023/01/06 09:08:44;;;;;;;2.08;1.38;;;;;;;12.91;100.00;96860.94;5058760;28;20739;-46
2023/01/06 09:11:12;;;;;;;2.50;1.40;;;;;;;13.23;100.00;96857.78;5053887;28;20084;-47
2023/01/06 09:13:41;;;;;;;1.52;1.20;;;;;;;13.24;100.00;96855.97;5052071;28;20080;-43
2023/01/06 09:16:10;;;;;;;1.58;1.20;;;;;;;13.26;100.00;96870.75;5056615;28;20084;-42
2023/01/06 09:18:43;;;;;;;4.10;1.23;;;;;;;12.87;100.00;96886.03;5046539;28;20081;-46
2023/01/06 09:21:12;;;;;;;1.70;1.15;;;;;;;13.66;100.00;96885.34;5054950;28;20081;-47
2023/01/06 09:23:40;;;;;;;2.00;1.13;;;;;;;13.36;100.00;96889.22;5048616;28;20536;-45
2023/01/06 09:26:08;;;;;;;3.42;1.10;;;;;;;13.93;100.00;96896.78;5053031;28;20563;-44
2023/01/06 09:28:37;;;;;;;1.92;1.42;;;;;;;14.05;100.00;96898.22;5050389;28;20548;-46
2023/01/06 09:31:05;;;;;;;2.85;1.20;;;;;;;14.32;100.00;96899.06;5048715;28;20085;-43
2023/01/06 09:33:34;;;;;;;2.63;1.55;;;;;;;14.47;100.00;96910.75;5052526;28;20476;-42
2023/01/06 09:36:04;;;;;;;2.40;1.33;;;;;;;14.67;100.00;96906.06;5049565;28;20103;-45
2023/01/06 09:38:32;;;;;;;2.75;1.63;;;;;;;14.88;100.00;96913.63;5054535;28;20080;-49
2023/01/06 09:41:12;;;;;;;2.50;1.50;;;;;;;14.92;100.00;96913.13;5052334;28;20768;-45
2023/01/06 09:43:46;;;;;;;1.20;0.85;;;;;;;14.34;100.00;96908.50;5054661;28;20085;-50
2023/01/06 09:46:17;;;;;;;1.50;1.08;;;;;;;14.44;100.00;96913.69;5054693;28;20087;-45
2023/01/06 09:48:53;;;;;;;3.17;0.93;;;;;;;14.12;100.00;96909.03;5055538;28;20630;-42
2023/01/06 09:51:25;;;;;;;3.63;0.82;;;;;;;13.69;100.00;96914.16;5053035;28;20081;-40
2023/01/06 09:53:57;;;;;;;1.15;0.63;;;;;;;13.74;100.00;96906.59;5054582;28;20481;-44
2023/01/06 09:56:25;;;;;;;1.60;0.93;;;;;;;13.98;100.00;96908.63;5054494;28;20080;-43
2023/01/06 09:58:59;;;;;;;1.45;1.02;;;;;;;14.31;100.00;96908.81;5052855;28;20080;-41
2023/01/06 10:01:31;;;;;;;1.17;0.70;;;;;;;13.86;100.00;96903.72;5050853;28;20525;-42
2023/01/06 10:03:59;;;;;;;0.75;0.52;;;;;;;14.01;100.00;96905.66;5056369;28;20088;-42
2023/01/06 10:06:33;;;;;;;1.02;0.60;;;;;;;13.73;100.00;96896.19;5054180;28;20080;-42
2023/01/06 10:09:10;;;;;;;1.30;0.73;;;;;;;13.94;100.00;96893.19;5053860;28;20099;-44
2023/01/06 10:11:48;;;;;;;1.48;1.00;;;;;;;13.78;100.00;96901.84;5057893;28;20080;-40
2023/01/06 10:14:21;;;;;;;1.05;0.70;;;;;;;14.00;100.00;96893.41;5057612;28;20083;-44
2023/01/06 10:17:03;;;;;;;0.77;0.63;;;;;;;14.19;100.00;96891.50;5053931;28;20089;-43
2023/01/06 10:19:44;;;;;;;1.20;0.80;;;;;;;13.91;100.00;96893.47;5051088;28;20072;-42
2023/01/06 10:22:18;;;;;;;0.73;0.70;;;;;;;13.47;100.00;96886.34;5052665;28;20082;-41
2023/01/06 10:24:54;;;;;;;1.10;0.60;;;;;;;13.48;100.00;96877.38;5054436;28;20068;-42
2023/01/06 10:27:26;;;;;;;3.55;0.57;;;;;;;13.51;100.00;96879.75;5057145;28;20083;-41
2023/01/06 10:29:56;;;;;;;1.15;0.90;;;;;;;13.56;100.00;96886.41;5052470;28;20541;-40
2023/01/06 10:32:28;;;;;;;0.40;0.38;;;;;;;13.94;100.00;96883.41;5055220;28;20273;-43
2023/01/06 10:34:57;;;;;;;0.98;0.60;;;;;;;13.91;100.00;96890.84;5058771;28;20073;-41
2023/01/06 10:37:32;;;;;;;0.70;0.60;;;;;;;13.92;100.00;96887.19;5056095;28;20080;-45
2023/01/06 10:40:06;;;;;;;0.70;0.60;;;;;;;14.19;100.00;96895.00;5060227;28;20742;-40
2023/01/06 10:43:01;;;;;;;1.50;1.00;;;;;;;14.26;100.00;96884.59;5055591;28;20099;-41
2023/01/06 10:45:33;;;;;;;0.77;0.63;;;;;;;14.41;100.00;96882.19;5053884;28;20095;-46
2023/01/06 10:48:03;;;;;;;1.52;0.80;;;;;;;14.40;100.00;96878.69;5053095;28;20821;-43
2023/01/06 10:50:33;;;;;;;1.33;0.93;;;;;;;14.28;100.00;96887.06;5054503;28;20540;-46
2023/01/06 10:53:03;;;;;;;0.82;0.60;;;;;;;14.03;100.00;96884.28;5057393;28;20087;-42
2023/01/06 10:55:39;;;;;;;1.83;1.15;;;;;;;14.30;100.00;96875.31;5052120;28;20072;-50
2023/01/06 10:58:15;;;;;;;0.98;0.68;;;;;;;14.46;100.00;96872.75;5051313;28;20060;-47
2023/01/06 11:00:58;;;;;;;2.13;1.05;;;;;;;14.79;100.00;96869.44;5052063;28;20080;-43
2023/01/06 11:03:28;;;;;;;1.60;1.00;;;;;;;14.65;100.00;96862.91;5051899;28;20084;-42
2023/01/06 11:06:05;;;;;;;2.53;1.10;;;;;;;14.96;100.00;96860.53;5051809;28;20073;-44
2023/01/06 11:08:35;;;;;;;0.85;0.70;;;;;;;14.88;100.00;96869.31;5052528;28;20079;-42
2023/01/06 11:11:08;;;;;;;;;;;;;;;14.92;100.00;96862.66;5053771;28;20081;-43
2023/01/06 11:13:54;;;;;;;;;;;;;;;14.88;100.00;96864.00;5053159;28;19955;-42
2023/01/06 11:16:24;;;;;;;;;;;;;;;14.94;100.00;96855.38;5056365;28;19963;-45
2023/01/06 11:18:53;;;;;;;;;;;;;;;14.69;100.00;96856.28;5051304;28;19952;-42
2023/01/06 11:21:21;;;;;;;;;;;;;;;14.97;100.00;96856.88;5050249;28;19955;-44
2023/01/06 11:23:50;;;;;;;;;;;;;;;14.86;100.00;96852.69;5052875;28;20345;-44
2023/01/06 11:26:19;;;;;;;;;;;;;;;14.58;100.00;96849.44;5054392;28;19952;-44
2023/01/06 11:28:48;;;;;;;;;;;;;;;14.78;100.00;96836.75;5052220;28;20392;-42
2023/01/06 11:31:18;;;;;;;;;;;;;;;15.00;100.00;96840.59;5050928;28;19959;-42
2023/01/06 11:33:47;;;;;;;;;;;;;;;14.72;100.00;96846.16;5051823;28;20352;-42
2023/01/06 11:36:15;;;;;;;;;;;;;;;14.54;100.00;96839.31;5051482;28;19964;-44
2023/01/06 11:38:45;;;;;;;;;;;;;;;14.83;100.00;96838.91;5054153;28;20427;-44
2023/01/06 11:41:16;;;;;;;;;;;;;;;14.88;100.00;96834.78;5053060;28;19960;-43
2023/01/06 11:43:45;;;;;;;;;;;;;;;15.24;100.00;96834.50;5053891;28;20355;-44
2023/01/06 11:46:14;;;;;;;;;;;;;;;14.99;100.00;96828.31;5051067;28;19967;-43
2023/01/06 11:48:43;;;;;;;;;;;;;;;15.28;100.00;96830.53;5049964;28;20369;-43
2023/01/06 11:51:11;;;;;;;;;;;;;;;15.20;100.00;96830.50;5055807;28;19971;-46
2023/01/06 11:53:39;;;;;;;;;;;;;;;15.35;100.00;96826.22;5052693;28;19967;-45